Time,TemperatureF,DewpointF,PressureIn,WindDirection,WindDirectionDegrees,WindSpeedMPH,WindSpeedGustMPH,Humidity,HourlyPrecipIn,Conditions,Clouds,dailyrainin,SoftwareType,DateUTC
2013-04-02 00:13:00,32.9,13.0,29.92,NW,324,1.0,6.0,44,0.00,,,0.01,weatherlink.com 1.10,2013-04-02 04:13:00,
2013-04-02 00:28:00,32.3,13.0,29.92,West,269,2.0,5.0,46,0.00,,,0.01,weatherlink.com 1.10,2013-04-02 04:28:00,
2013-04-02 00:43:00,31.7,13.0,29.93,West,274,1.0,5.0,47,0.00,,,0.01,weatherlink.com 1.10,2013-04-02 04:43:00,
2013-04-02 00:58:00,31.3,14.0,29.93,West,276,0.0,3.0,49,0.00,,,0.01,weatherlink.com 1.10,2013-04-02 04:58:00,
2013-04-02 01:13:00,30.7,14.0,29.93,West,276,0.0,1.0,50,0.00,,,0.01,weatherlink.com 1.10,2013-04-02 05:13:00,
2013-04-02 01:28:00,30.1,13.0,29.93,West,277,0.0,2.0,50,0.00,,,0.01,weatherlink.com 1.10,2013-04-02 05:28:00,
2013-04-02 01:43:00,29.3,14.0,29.93,West,275,0.0,2.0,53,0.00,,,0.01,weatherlink.com 1.10,2013-04-02 05:43:00,
2013-04-02 01:58:00,28.7,14.0,29.94,West,275,0.0,0.0,55,0.00,,,0.01,weatherlink.com 1.10,2013-04-02 05:58:00,
2013-04-02 02:13:00,28.1,14.0,29.93,West,276,0.0,1.0,56,0.00,,,0.01,weatherlink.com 1.10,2013-04-02 06:13:00,
2013-04-02 02:28:00,27.6,14.0,29.93,West,276,0.0,1.0,58,0.00,,,0.01,weatherlink.com 1.10,2013-04-02 06:28:00,
2013-04-02 02:43:00,27.1,15.0,29.93,West,277,0.0,1.0,60,0.00,,,0.01,weatherlink.com 1.10,2013-04-02 06:43:00,
2013-04-02 02:58:00,27.0,15.0,29.93,West,277,0.0,1.0,60,0.00,,,0.01,weatherlink.com 1.10,2013-04-02 06:58:00,
2013-04-02 03:13:00,26.7,14.0,29.93,West,277,0.0,2.0,59,0.00,,,0.01,weatherlink.com 1.10,2013-04-02 07:13:00,
2013-04-02 03:28:00,26.6,14.0,29.93,West,277,0.0,1.0,60,0.00,,,0.01,weatherlink.com 1.10,2013-04-02 07:28:00,
2013-04-02 03:43:00,26.5,16.0,29.93,West,277,0.0,0.0,65,0.00,,,0.01,weatherlink.com 1.10,2013-04-02 07:43:00,
2013-04-02 03:58:00,26.2,15.0,29.93,West,277,0.0,1.0,63,0.00,,,0.01,weatherlink.com 1.10,2013-04-02 07:58:00,
2013-04-02 04:13:00,26.1,15.0,29.93,West,277,0.0,1.0,63,0.00,,,0.01,weatherlink.com 1.10,2013-04-02 08:13:00,
2013-04-02 04:28:00,25.9,14.0,29.93,NW,308,2.0,4.0,62,0.00,,,0.01,weatherlink.com 1.10,2013-04-02 08:28:00,
2013-04-02 04:44:00,26.1,14.0,29.93,West,267,0.0,2.0,61,0.00,,,0.01,weatherlink.com 1.10,2013-04-02 08:44:00,
2013-04-02 04:59:00,26.2,14.0,29.94,WNW,288,1.0,2.0,61,0.00,,,0.01,weatherlink.com 1.10,2013-04-02 08:59:00,
2013-04-02 05:14:00,26.3,14.0,29.94,WNW,288,0.0,2.0,61,0.00,,,0.01,weatherlink.com 1.10,2013-04-02 09:14:00,
2013-04-02 05:29:00,26.0,15.0,29.95,WNW,288,1.0,1.0,64,0.00,,,0.01,weatherlink.com 1.10,2013-04-02 09:29:00,
2013-04-02 05:44:00,25.6,16.0,29.95,WNW,288,0.0,1.0,67,0.00,,,0.01,weatherlink.com 1.10,2013-04-02 09:44:00,
2013-04-02 05:59:00,25.1,15.0,29.95,WNW,288,0.0,0.0,65,0.00,,,0.01,weatherlink.com 1.10,2013-04-02 09:59:00,
2013-04-02 06:14:00,24.8,15.0,29.95,WNW,288,0.0,0.0,65,0.00,,,0.01,weatherlink.com 1.10,2013-04-02 10:14:00,
2013-04-02 06:29:00,24.5,15.0,29.96,NW,307,0.0,0.0,66,0.00,,,0.00,weatherlink.com 1.10,2013-04-02 10:29:00,
2013-04-02 06:44:00,24.5,15.0,29.96,NW,307,0.0,0.0,66,0.00,,,0.00,weatherlink.com 1.10,2013-04-02 10:44:00,
2013-04-02 06:59:00,24.4,14.0,29.97,NW,307,0.0,0.0,66,0.00,,,0.00,weatherlink.com 1.10,2013-04-02 10:59:00,
2013-04-02 07:14:00,24.6,15.0,29.98,NW,307,0.0,0.0,67,0.00,,,0.00,weatherlink.com 1.10,2013-04-02 11:14:00,
2013-04-02 07:29:00,25.7,16.0,29.98,NW,307,0.0,0.0,66,0.00,,,0.00,weatherlink.com 1.10,2013-04-02 11:29:00,
2013-04-02 07:44:00,26.7,17.0,29.99,NW,307,0.0,1.0,67,0.00,,,0.00,weatherlink.com 1.10,2013-04-02 11:44:00,
2013-04-02 07:59:00,27.4,18.0,30.00,NW,307,0.0,1.0,67,0.00,,,0.00,weatherlink.com 1.10,2013-04-02 11:59:00,
2013-04-02 08:14:00,28.2,17.0,30.00,NW,314,1.0,4.0,63,0.00,,,0.00,weatherlink.com 1.10,2013-04-02 12:14:00,
2013-04-02 08:29:00,29.3,16.0,30.01,NNW,328,0.0,5.0,59,0.00,,,0.00,weatherlink.com 1.10,2013-04-02 12:29:00,
2013-04-02 08:44:00,30.2,18.0,30.02,NW,312,1.0,11.0,61,0.00,,,0.00,weatherlink.com 1.10,2013-04-02 12:44:00,
2013-04-02 08:59:00,31.0,18.0,30.02,West,281,3.0,9.0,60,0.00,,,0.00,weatherlink.com 1.10,2013-04-02 12:59:00,
2013-04-02 09:14:00,31.3,19.0,30.03,NNW,333,6.0,13.0,61,0.00,,,0.00,weatherlink.com 1.10,2013-04-02 13:14:00,
2013-04-02 09:29:00,31.2,19.0,30.03,WNW,302,4.0,15.0,62,0.00,,,0.00,weatherlink.com 1.10,2013-04-02 13:29:00,
2013-04-02 09:44:00,31.7,20.0,30.03,West,267,9.0,14.0,61,0.00,,,0.00,weatherlink.com 1.10,2013-04-02 13:44:00,
2013-04-02 09:59:00,31.3,18.0,30.04,NW,309,6.0,11.0,59,0.00,,,0.00,weatherlink.com 1.10,2013-04-02 13:59:00,
2013-04-02 10:14:00,31.0,18.0,30.04,West,275,4.0,10.0,59,0.00,,,0.00,weatherlink.com 1.10,2013-04-02 14:14:00,
2013-04-02 10:29:00,33.8,18.0,30.03,NNW,330,5.0,10.0,52,0.00,,,0.00,weatherlink.com 1.10,2013-04-02 14:29:00,
2013-04-02 10:44:00,34.7,15.0,30.02,NNW,328,4.0,13.0,45,0.00,,,0.00,weatherlink.com 1.10,2013-04-02 14:44:00,
2013-04-02 10:59:00,35.1,15.0,30.02,NW,317,4.0,13.0,44,0.00,,,0.00,weatherlink.com 1.10,2013-04-02 14:59:00,
2013-04-02 11:14:00,35.4,14.0,30.02,NW,325,4.0,10.0,42,0.00,,,0.00,weatherlink.com 1.10,2013-04-02 15:14:00,
2013-04-02 11:29:00,35.7,12.0,30.01,WNW,294,9.0,17.0,38,0.00,,,0.00,weatherlink.com 1.10,2013-04-02 15:29:00,
2013-04-02 11:45:00,36.3,12.0,30.01,NNW,340,6.0,19.0,36,0.00,,,0.00,weatherlink.com 1.10,2013-04-02 15:45:00,
2013-04-02 12:00:00,38.5,14.0,30.00,West,267,3.0,15.0,37,0.00,,,0.00,weatherlink.com 1.10,2013-04-02 16:00:00,
2013-04-02 12:15:00,38.5,14.0,30.00,West,259,4.0,16.0,36,0.00,,,0.00,weatherlink.com 1.10,2013-04-02 16:15:00,
2013-04-02 12:30:00,37.8,15.0,30.01,SW,215,9.0,17.0,40,0.00,,,0.00,weatherlink.com 1.10,2013-04-02 16:30:00,
2013-04-02 12:45:00,38.2,14.0,30.00,WNW,292,6.0,19.0,37,0.00,,,0.00,weatherlink.com 1.10,2013-04-02 16:45:00,
2013-04-02 13:00:00,39.1,13.0,30.00,WNW,282,8.0,18.0,34,0.00,,,0.00,weatherlink.com 1.10,2013-04-02 17:00:00,
2013-04-02 13:15:00,39.2,14.0,29.99,SW,229,5.0,15.0,35,0.00,,,0.00,weatherlink.com 1.10,2013-04-02 17:15:00,
2013-04-02 13:30:00,40.4,17.0,29.99,WSW,251,10.0,13.0,39,0.00,,,0.00,weatherlink.com 1.10,2013-04-02 17:30:00,
2013-04-02 13:45:00,39.4,14.0,29.99,West,278,8.0,15.0,35,0.00,,,0.00,weatherlink.com 1.10,2013-04-02 17:45:00,
2013-04-02 14:00:00,39.8,12.0,29.99,WNW,287,10.0,21.0,32,0.00,,,0.00,weatherlink.com 1.10,2013-04-02 18:00:00,
2013-04-02 14:30:00,39.9,13.0,29.98,West,265,7.0,17.0,33,0.00,,,0.00,weatherlink.com 1.10,2013-04-02 18:30:00,
2013-04-02 14:45:00,39.7,13.0,29.98,WSW,253,3.0,16.0,33,0.00,,,0.00,weatherlink.com 1.10,2013-04-02 18:45:00,
2013-04-02 15:00:00,41.1,12.0,29.97,NNW,335,4.0,14.0,30,0.00,,,0.00,weatherlink.com 1.10,2013-04-02 19:00:00,
2013-04-02 15:15:00,41.1,12.0,29.97,West,265,6.0,19.0,31,0.00,,,0.00,weatherlink.com 1.10,2013-04-02 19:15:00,
2013-04-02 15:30:00,40.7,14.0,29.96,West,271,11.0,19.0,33,0.00,,,0.00,weatherlink.com 1.10,2013-04-02 19:30:00,
2013-04-02 15:45:00,42.4,11.0,29.96,WSW,253,10.0,22.0,28,0.00,,,0.00,weatherlink.com 1.10,2013-04-02 19:45:00,
2013-04-02 16:00:00,42.8,13.0,29.96,WNW,283,10.0,19.0,30,0.00,,,0.00,weatherlink.com 1.10,2013-04-02 20:00:00,
2013-04-02 16:15:00,43.0,13.0,29.97,WSW,256,7.0,22.0,30,0.00,,,0.00,weatherlink.com 1.10,2013-04-02 20:15:00,
2013-04-02 16:30:00,41.6,11.0,29.97,West,261,7.0,23.0,29,0.00,,,0.00,weatherlink.com 1.10,2013-04-02 20:30:00,
2013-04-02 16:45:00,40.8,12.0,29.97,NW,326,6.0,21.0,31,0.00,,,0.00,weatherlink.com 1.10,2013-04-02 20:45:00,
2013-04-02 17:00:00,41.5,11.0,29.97,NW,306,17.0,27.0,29,0.00,,,0.00,weatherlink.com 1.10,2013-04-02 21:00:00,
2013-04-02 17:15:00,40.8,12.0,29.98,NW,313,11.0,21.0,31,0.00,,,0.00,weatherlink.com 1.10,2013-04-02 21:15:00,
2013-04-02 17:30:00,40.8,11.0,29.97,West,259,9.0,26.0,30,0.00,,,0.00,weatherlink.com 1.10,2013-04-02 21:30:00,
2013-04-02 17:45:00,41.7,12.0,29.98,SW,235,6.0,15.0,30,0.00,,,0.00,weatherlink.com 1.10,2013-04-02 21:45:00,
2013-04-02 18:00:00,41.1,12.0,29.98,WSW,247,9.0,19.0,30,0.00,,,0.00,weatherlink.com 1.10,2013-04-02 22:00:00,
2013-04-02 18:15:00,40.1,11.0,29.99,West,272,3.0,19.0,30,0.00,,,0.00,weatherlink.com 1.10,2013-04-02 22:15:00,
2013-04-02 18:30:00,40.2,12.0,29.99,WSW,250,4.0,14.0,31,0.00,,,0.00,weatherlink.com 1.10,2013-04-02 22:30:00,
2013-04-02 18:45:00,40.4,11.0,30.00,WSW,241,6.0,20.0,30,0.00,,,0.00,weatherlink.com 1.10,2013-04-02 22:45:00,
2013-04-02 19:15:00,39.0,11.0,30.01,WSW,257,2.0,14.0,32,0.00,,,0.00,weatherlink.com 1.10,2013-04-02 23:15:00,
2013-04-02 19:30:00,38.3,11.0,30.01,WSW,251,4.0,13.0,33,0.00,,,0.00,weatherlink.com 1.10,2013-04-02 23:30:00,
2013-04-02 19:45:00,37.9,12.0,30.01,West,268,5.0,16.0,34,0.00,,,0.00,weatherlink.com 1.10,2013-04-02 23:45:00,
2013-04-02 20:00:00,37.4,12.0,30.02,West,269,6.0,14.0,35,0.00,,,0.00,weatherlink.com 1.10,2013-04-03 00:00:00,
2013-04-02 20:15:00,37.2,12.0,30.02,West,265,5.0,13.0,36,0.00,,,0.00,weatherlink.com 1.10,2013-04-03 00:15:00,
2013-04-02 20:30:00,36.9,12.0,30.03,WSW,249,3.0,13.0,36,0.00,,,0.00,weatherlink.com 1.10,2013-04-03 00:30:00,
2013-04-02 20:45:00,36.4,12.0,30.04,WNW,286,4.0,9.0,37,0.00,,,0.00,weatherlink.com 1.10,2013-04-03 00:45:00,
2013-04-02 21:00:00,35.9,12.0,30.05,West,271,5.0,10.0,38,0.00,,,0.00,weatherlink.com 1.10,2013-04-03 01:00:00,
2013-04-02 21:15:00,35.6,13.0,30.05,WSW,250,5.0,9.0,39,0.00,,,0.00,weatherlink.com 1.10,2013-04-03 01:15:00,
2013-04-02 21:30:00,35.2,13.0,30.06,WSW,254,3.0,8.0,40,0.00,,,0.00,weatherlink.com 1.10,2013-04-03 01:30:00,
2013-04-02 21:45:00,34.7,13.0,30.06,WSW,252,5.0,9.0,40,0.00,,,0.00,weatherlink.com 1.10,2013-04-03 01:45:00,
2013-04-02 22:00:00,34.6,13.0,30.06,West,270,6.0,11.0,41,0.00,,,0.00,weatherlink.com 1.10,2013-04-03 02:00:00,
2013-04-02 22:15:00,34.4,13.0,30.07,WSW,254,3.0,9.0,42,0.00,,,0.00,weatherlink.com 1.10,2013-04-03 02:15:00,
2013-04-02 22:30:00,34.0,13.0,30.07,West,279,4.0,11.0,42,0.00,,,0.00,weatherlink.com 1.10,2013-04-03 02:30:00,
2013-04-02 22:45:00,33.6,13.0,30.07,West,259,3.0,6.0,43,0.00,,,0.00,weatherlink.com 1.10,2013-04-03 02:45:00,
2013-04-02 23:15:00,32.9,13.0,30.08,WNW,283,0.0,4.0,44,0.00,,,0.00,weatherlink.com 1.10,2013-04-03 03:15:00,
2013-04-02 23:30:00,32.5,12.0,30.09,West,265,0.0,8.0,43,0.00,,,0.00,weatherlink.com 1.10,2013-04-03 03:30:00,
2013-04-02 23:45:00,32.3,12.0,30.09,West,273,1.0,7.0,43,0.00,,,0.00,weatherlink.com 1.10,2013-04-03 03:45:00,